createdAt,value
2019-04-21T00:00:07.861Z,7.85
2019-04-21T00:02:36.365Z,13.58
2019-04-21T00:05:24.945Z,8.70
2019-04-21T00:07:59.213Z,8.78
2019-04-21T00:10:36.077Z,10.23
2019-04-21T00:12:57.417Z,7.55
2019-04-21T00:15:20.433Z,9.55
2019-04-21T00:17:44.494Z,11.65
2019-04-21T00:20:26.102Z,9.55
2019-04-21T00:22:58.800Z,7.67
2019-04-21T00:25:30.910Z,9.23
2019-04-21T00:28:09.237Z,7.15
2019-04-21T00:30:40.095Z,7.50
2019-04-21T00:33:04.579Z,8.10
2019-04-21T00:35:26.509Z,9.95
2019-04-21T00:38:19.598Z,8.05
2019-04-21T00:40:50.416Z,7.00
2019-04-21T00:43:15.085Z,6.03
2019-04-21T00:45:42.255Z,8.63
2019-04-21T00:48:23.649Z,11.70
2019-04-21T00:51:10.994Z,9.83
2019-04-21T00:53:37.117Z,8.60
2019-04-21T00:58:35.951Z,9.85
2019-04-21T01:01:08.845Z,9.77
2019-04-21T01:06:12.678Z,13.00
2019-04-21T01:08:42.668Z,7.03
2019-04-21T01:11:15.334Z,9.20
2019-04-21T01:13:45.452Z,11.33
2019-04-21T01:16:25.659Z,8.13
2019-04-21T01:18:42.672Z,9.58
2019-04-21T01:20:56.394Z,8.00
2019-04-21T01:23:27.442Z,9.40
2019-04-21T01:26:12.197Z,7.63
2019-04-21T01:28:49.555Z,12.63
2019-04-21T01:31:18.500Z,7.00
2019-04-21T01:33:50.942Z,11.25
2019-04-21T01:36:18.103Z,10.07
2019-04-21T01:38:59.145Z,10.15
2019-04-21T01:41:33.478Z,8.95
2019-04-21T01:43:54.565Z,10.68
2019-04-21T01:46:28.433Z,9.98
2019-04-21T01:48:56.788Z,6.37
2019-04-21T01:51:28.313Z,10.45
2019-04-21T01:54:18.495Z,7.42
2019-04-21T01:56:46.258Z,8.90
2019-04-21T01:59:08.995Z,8.80
2019-04-21T02:01:52.310Z,8.93
2019-04-21T02:04:29.436Z,11.28
2019-04-21T02:07:03.155Z,9.75
2019-04-21T02:09:38.134Z,10.98
2019-04-21T02:12:09.761Z,12.63
2019-04-21T02:14:45.665Z,10.80
2019-04-21T02:17:13.198Z,10.25
2019-04-21T02:19:39.620Z,9.98
2019-04-21T02:22:12.546Z,10.90
2019-04-21T02:24:49.924Z,9.47
2019-04-21T02:27:21.815Z,9.50
2019-04-21T02:29:55.149Z,11.20
2019-04-21T02:32:38.913Z,10.60
2019-04-21T02:35:14.171Z,9.55
2019-04-21T02:42:38.014Z,10.98
2019-04-21T02:45:14.590Z,7.97
2019-04-21T02:47:48.585Z,9.03
2019-04-21T02:50:21.274Z,12.50
2019-04-21T02:52:43.902Z,13.93
2019-04-21T02:55:17.985Z,10.53
2019-04-21T02:57:49.449Z,12.20
2019-04-21T03:00:34.614Z,9.95
2019-04-21T03:08:37.916Z,11.43
2019-04-21T03:10:45.584Z,10.35
2019-04-21T03:13:21.753Z,13.00
2019-04-21T03:15:47.387Z,14.85
2019-04-21T03:18:26.601Z,9.03
2019-04-21T03:21:03.138Z,9.98
2019-04-21T03:25:59.062Z,12.07
2019-04-21T03:28:30.201Z,16.30
2019-04-21T03:31:32.068Z,10.32
2019-04-21T03:36:33.209Z,12.47
2019-04-21T03:38:37.424Z,13.28
2019-04-21T03:41:04.628Z,11.00
2019-04-21T03:43:40.169Z,11.60
2019-04-21T03:46:05.950Z,11.28
2019-04-21T03:48:40.890Z,9.33
2019-04-21T03:53:55.890Z,12.75
2019-04-21T03:56:46.957Z,13.65
2019-04-21T03:58:58.628Z,16.90
2019-04-21T04:01:38.579Z,12.13
2019-04-21T04:07:18.608Z,18.12
2019-04-21T04:09:44.518Z,21.30
2019-04-21T04:12:12.504Z,13.10
2019-04-21T04:14:47.344Z,21.77
2019-04-21T04:19:45.382Z,19.05
2019-04-21T04:24:57.954Z,16.10
2019-04-21T04:29:59.341Z,16.63
2019-04-21T04:32:32.999Z,13.75
2019-04-21T04:35:03.357Z,20.93
2019-04-21T04:37:32.059Z,18.87
2019-04-21T04:42:41.629Z,13.18
2019-04-21T04:49:59.705Z,11.50
2019-04-21T04:52:37.863Z,16.82
2019-04-21T04:55:08.527Z,13.03
2019-04-21T04:57:56.593Z,10.78
2019-04-21T05:00:26.131Z,12.50
2019-04-21T05:07:58.000Z,10.85
2019-04-21T05:10:27.387Z,16.60
2019-04-21T05:12:50.701Z,13.03
2019-04-21T05:15:19.305Z,8.90
2019-04-21T05:17:50.945Z,14.35
2019-04-21T05:20:41.898Z,9.00
2019-04-21T05:22:54.503Z,12.03
2019-04-21T05:25:21.172Z,11.33
2019-04-21T05:27:47.356Z,16.60
2019-04-21T05:30:33.852Z,15.45
2019-04-21T05:33:03.655Z,9.18
2019-04-21T05:35:57.246Z,10.18
2019-04-21T05:38:29.077Z,10.70
2019-04-21T05:40:55.183Z,13.90
2019-04-21T05:43:32.244Z,9.13
2019-04-21T05:46:04.718Z,12.40
2019-04-21T05:48:39.672Z,10.13
2019-04-21T05:51:09.051Z,11.18
2019-04-21T05:53:52.095Z,10.45
2019-04-21T05:56:25.694Z,12.28
2019-04-21T05:58:48.451Z,12.63
2019-04-21T06:01:31.472Z,13.38
2019-04-21T06:04:01.740Z,15.60
2019-04-21T06:06:37.540Z,11.57
2019-04-21T06:09:16.151Z,10.28
2019-04-21T06:11:42.306Z,10.98
2019-04-21T06:14:02.585Z,13.80
2019-04-21T06:16:37.448Z,22.75
2019-04-21T06:19:22.309Z,10.75
2019-04-21T06:21:33.234Z,14.38
2019-04-21T06:24:03.762Z,11.33
2019-04-21T06:29:10.128Z,9.03
2019-04-21T06:34:16.630Z,16.90
2019-04-21T06:37:19.218Z,15.13
2019-04-21T06:39:48.263Z,30.72
2019-04-21T06:42:02.555Z,17.25
2019-04-21T06:44:41.018Z,17.15
2019-04-21T06:47:17.927Z,16.48
2019-04-21T06:49:40.548Z,11.10
2019-04-21T06:52:33.573Z,22.52
2019-04-21T06:54:49.451Z,16.27
2019-04-21T06:57:18.432Z,13.48
2019-04-21T06:59:43.103Z,22.17
2019-04-21T07:07:17.195Z,7.90
2019-04-21T07:09:57.139Z,17.23
2019-04-21T07:12:24.429Z,18.70
2019-04-21T07:14:58.950Z,30.52
2019-04-21T07:17:30.642Z,10.93
2019-04-21T07:22:37.095Z,20.65
2019-04-21T07:25:10.522Z,29.10
2019-04-21T07:27:35.149Z,19.07
2019-04-21T07:30:04.617Z,36.33
2019-04-21T07:32:40.040Z,37.30
2019-04-21T07:35:08.435Z,39.18
2019-04-21T07:40:05.411Z,41.18
2019-04-21T07:42:40.034Z,46.47
2019-04-21T07:45:11.926Z,22.98
2019-04-21T07:47:55.219Z,25.72
2019-04-21T07:50:38.589Z,28.32
2019-04-21T07:53:22.800Z,17.05
2019-04-21T07:55:34.233Z,13.32
2019-04-21T07:58:22.636Z,15.63
2019-04-21T08:00:56.451Z,12.37
2019-04-21T08:03:30.066Z,28.83
2019-04-21T08:05:59.415Z,18.27
2019-04-21T08:08:26.323Z,11.63
2019-04-21T08:10:57.056Z,11.63
2019-04-21T08:13:39.657Z,11.93
2019-04-21T08:16:04.832Z,9.80
2019-04-21T08:18:40.005Z,10.95
2019-04-21T08:21:05.905Z,10.35
2019-04-21T08:23:40.189Z,10.00
2019-04-21T08:26:10.387Z,16.30
2019-04-21T08:28:49.435Z,13.48
2019-04-21T08:31:15.750Z,15.72
2019-04-21T08:36:24.960Z,9.33
2019-04-21T08:38:57.050Z,11.53
2019-04-21T08:41:18.143Z,12.23
2019-04-21T08:43:51.912Z,7.50
2019-04-21T08:46:25.413Z,12.40
2019-04-21T08:48:55.378Z,10.00
2019-04-21T08:54:01.421Z,9.73
2019-04-21T08:56:43.505Z,18.05
2019-04-21T08:59:33.958Z,12.37
2019-04-21T09:02:02.974Z,10.45
2019-04-21T09:04:35.236Z,8.55
2019-04-21T09:07:12.923Z,11.60
2019-04-21T09:09:45.711Z,8.05
2019-04-21T09:12:10.660Z,11.33
2019-04-21T09:14:41.584Z,9.50
2019-04-21T09:17:12.127Z,8.25
2019-04-21T09:20:07.893Z,10.58
2019-04-21T09:22:18.232Z,8.50
2019-04-21T09:24:52.630Z,11.08
2019-04-21T09:27:21.770Z,8.95
2019-04-21T09:29:43.983Z,7.00
2019-04-21T09:32:14.630Z,6.40
2019-04-21T09:37:24.597Z,11.03
2019-04-21T09:39:48.217Z,8.28
2019-04-21T09:42:16.782Z,10.90
2019-04-21T09:44:51.893Z,8.03
2019-04-21T09:47:22.658Z,11.93
2019-04-21T09:49:50.106Z,6.67
2019-04-21T09:52:25.435Z,11.95
2019-04-21T09:55:03.706Z,12.30
2019-04-21T09:57:35.026Z,11.08
2019-04-21T10:00:02.131Z,6.17
2019-04-21T10:02:42.955Z,5.90
2019-04-21T10:05:08.310Z,7.90
2019-04-21T10:07:41.724Z,9.57
2019-04-21T10:10:10.541Z,7.42
2019-04-21T10:12:41.109Z,5.37
2019-04-21T10:15:10.954Z,9.63
2019-04-21T10:17:41.672Z,9.43
2019-04-21T10:20:13.858Z,8.90
2019-04-21T10:22:44.704Z,8.68
2019-04-21T10:25:18.566Z,10.30
2019-04-21T10:27:49.407Z,6.17
2019-04-21T10:30:20.367Z,16.05
2019-04-21T10:32:50.255Z,5.58
2019-04-21T10:35:24.328Z,6.33
2019-04-21T10:38:06.716Z,7.47
2019-04-21T10:40:28.335Z,10.72
2019-04-21T10:42:58.359Z,7.10
2019-04-21T10:45:28.658Z,13.08
2019-04-21T10:47:58.835Z,5.87
2019-04-21T10:50:31.306Z,9.98
2019-04-21T10:53:00.984Z,7.62
2019-04-21T10:55:53.514Z,13.60
2019-04-21T10:58:14.283Z,5.35
2019-04-21T11:00:46.194Z,8.08
2019-04-21T11:06:08.892Z,7.87
2019-04-21T11:08:44.091Z,10.70
2019-04-21T11:11:10.291Z,11.33
2019-04-21T11:13:42.554Z,8.15
2019-04-21T11:16:13.234Z,6.83
2019-04-21T11:18:44.020Z,5.15
2019-04-21T11:21:13.711Z,6.83
2019-04-21T11:23:43.866Z,8.70
2019-04-21T11:26:14.008Z,8.23
2019-04-21T11:28:45.095Z,7.60
2019-04-21T11:31:15.384Z,13.35
2019-04-21T11:33:45.409Z,8.98
2019-04-21T11:36:15.590Z,10.98
2019-04-21T11:39:06.040Z,10.95
2019-04-21T11:41:25.676Z,5.70
2019-04-21T11:43:55.414Z,9.13
2019-04-21T11:46:25.012Z,7.25
2019-04-21T11:48:54.800Z,6.10
2019-04-21T11:51:24.901Z,6.58
2019-04-21T11:53:54.997Z,6.78
2019-04-21T11:56:25.105Z,8.35
2019-04-21T11:58:54.914Z,8.78
2019-04-21T12:01:25.607Z,8.75
2019-04-21T12:03:55.721Z,6.50
2019-04-21T12:06:33.512Z,7.95
2019-04-21T12:09:01.230Z,8.05
2019-04-21T12:11:31.368Z,7.33
2019-04-21T12:14:01.123Z,5.80
2019-04-21T12:16:33.029Z,11.40
2019-04-21T12:19:03.115Z,8.05
2019-04-21T12:21:46.686Z,10.43
2019-04-21T12:24:07.204Z,8.23
2019-04-21T12:26:37.992Z,7.95
2019-04-21T12:29:08.100Z,5.47
2019-04-21T12:31:43.400Z,5.70
2019-04-21T12:34:14.148Z,7.17
2019-04-21T12:36:44.004Z,7.53
2019-04-21T12:39:14.925Z,6.65
2019-04-21T12:41:44.708Z,9.43
2019-04-21T12:44:14.885Z,6.55
2019-04-21T12:46:45.670Z,10.35
2019-04-21T12:49:17.651Z,8.30
2019-04-21T12:51:49.267Z,11.15
2019-04-21T12:54:19.633Z,6.55
2019-04-21T12:56:49.561Z,5.53
2019-04-21T12:59:19.452Z,7.42
2019-04-21T13:01:48.960Z,7.97
2019-04-21T13:04:19.728Z,6.83
2019-04-21T13:06:49.842Z,6.72
2019-04-21T13:09:20.460Z,14.00
2019-04-21T13:11:50.975Z,10.55
2019-04-21T13:14:21.996Z,5.92
2019-04-21T13:16:51.946Z,8.77
2019-04-21T13:19:21.523Z,5.78
2019-04-21T13:21:52.060Z,7.33
2019-04-21T13:24:22.073Z,7.60
2019-04-21T13:26:57.592Z,8.30
2019-04-21T13:29:24.404Z,5.65
2019-04-21T13:31:54.265Z,7.45
2019-04-21T13:34:26.305Z,6.40
2019-04-21T13:39:50.727Z,9.25
2019-04-21T13:42:10.111Z,6.92
2019-04-21T13:44:28.924Z,4.87
2019-04-21T13:47:02.758Z,6.53
2019-04-21T13:49:35.052Z,6.22
2019-04-21T13:52:04.811Z,8.90
2019-04-21T13:54:35.685Z,8.48
2019-04-21T13:57:08.348Z,5.23
2019-04-21T13:59:38.486Z,4.28
2019-04-21T14:04:41.176Z,8.83
2019-04-21T14:07:12.227Z,7.50
2019-04-21T14:09:52.803Z,4.80
2019-04-21T14:12:14.597Z,7.35
2019-04-21T14:14:44.296Z,5.50
2019-04-21T14:17:15.070Z,4.30
2019-04-21T14:19:45.618Z,8.83
2019-04-21T14:22:18.549Z,8.03
2019-04-21T14:24:48.219Z,11.33
2019-04-21T14:27:18.513Z,10.50
2019-04-21T14:29:49.266Z,5.78
2019-04-21T14:32:20.212Z,4.27
2019-04-21T14:34:53.860Z,4.90
2019-04-21T14:37:24.696Z,4.65
2019-04-21T14:40:01.891Z,6.15
2019-04-21T14:44:58.921Z,6.30
2019-04-21T14:47:31.502Z,7.37
2019-04-21T14:50:05.038Z,7.62
2019-04-21T14:52:37.207Z,7.17
2019-04-21T14:55:09.667Z,7.92
2019-04-21T14:57:41.184Z,6.25
2019-04-21T15:00:15.360Z,7.83
2019-04-21T15:02:47.575Z,8.05
2019-04-21T15:05:19.627Z,7.60
2019-04-21T15:07:50.905Z,6.65
2019-04-21T15:10:25.600Z,6.50
2019-04-21T15:12:52.240Z,6.47
2019-04-21T15:15:21.865Z,5.92
2019-04-21T15:17:53.541Z,11.68
2019-04-21T15:20:23.834Z,8.48
2019-04-21T15:22:56.607Z,5.28
2019-04-21T15:25:26.183Z,6.20
2019-04-21T15:27:56.662Z,5.72
2019-04-21T15:30:26.883Z,4.95
2019-04-21T15:32:56.435Z,5.25
2019-04-21T15:35:26.937Z,8.15
2019-04-21T15:37:58.056Z,7.25
2019-04-21T15:40:37.666Z,5.28
2019-04-21T15:43:00.138Z,6.00
2019-04-21T15:45:30.617Z,7.42
2019-04-21T15:48:00.369Z,5.63
2019-04-21T15:50:30.252Z,8.73
2019-04-21T15:53:01.607Z,4.85
2019-04-21T15:55:41.894Z,7.97
2019-04-21T15:58:12.318Z,6.35
2019-04-21T16:00:42.678Z,5.80
2019-04-21T16:03:12.965Z,8.55
2019-04-21T16:05:42.729Z,5.58
2019-04-21T16:08:14.231Z,4.00
2019-04-21T16:13:16.044Z,4.60
2019-04-21T16:15:46.604Z,10.82
2019-04-21T16:18:18.275Z,9.90
2019-04-21T16:20:50.139Z,8.55
2019-04-21T16:23:22.557Z,7.83
2019-04-21T16:25:54.707Z,6.00
2019-04-21T16:28:23.690Z,3.83
2019-04-21T16:30:54.344Z,5.30
2019-04-21T16:33:25.123Z,5.27
2019-04-21T16:35:56.021Z,5.40
2019-04-21T16:38:25.863Z,5.53
2019-04-21T16:41:00.980Z,4.97
2019-04-21T16:43:29.118Z,7.37
2019-04-21T16:45:59.228Z,6.97
2019-04-21T16:48:28.946Z,7.80
2019-04-21T16:50:59.564Z,6.20
2019-04-21T16:53:32.198Z,9.33
2019-04-21T16:56:06.966Z,5.62
2019-04-21T16:58:38.869Z,5.35
2019-04-21T17:01:23.757Z,8.58
2019-04-21T17:03:54.669Z,6.83
2019-04-21T17:06:24.975Z,7.13
2019-04-21T17:08:56.803Z,5.87
2019-04-21T17:11:33.104Z,8.65
2019-04-21T17:14:00.480Z,7.05
2019-04-21T17:17:08.724Z,6.67
2019-04-21T17:19:12.793Z,7.17
2019-04-21T17:21:34.250Z,9.23
2019-04-21T17:24:06.439Z,7.95
2019-04-21T17:26:39.008Z,9.85
2019-04-21T17:29:06.909Z,9.00
2019-04-21T17:31:39.231Z,7.95
2019-04-21T17:34:14.531Z,5.55
2019-04-21T17:36:41.130Z,5.70
2019-04-21T17:39:13.058Z,7.42
2019-04-21T17:41:59.132Z,5.28
2019-04-21T17:44:15.160Z,5.58
2019-04-21T17:46:53.750Z,11.57
2019-04-21T17:49:18.925Z,5.83
2019-04-21T17:51:55.156Z,10.15
2019-04-21T17:54:35.814Z,8.63
2019-04-21T17:57:24.453Z,6.53
2019-04-21T18:02:31.079Z,5.97
2019-04-21T18:05:03.647Z,6.97
2019-04-21T18:07:31.623Z,6.87
2019-04-21T18:10:10.103Z,7.42
2019-04-21T18:12:33.649Z,5.92
2019-04-21T18:15:00.084Z,6.60
2019-04-21T18:17:24.631Z,6.53
2019-04-21T18:19:57.211Z,5.55
2019-04-21T18:22:41.148Z,8.45
2019-04-21T18:25:27.114Z,11.10
2019-04-21T18:27:44.813Z,5.25
2019-04-21T18:30:52.408Z,5.30
2019-04-21T18:33:30.003Z,4.90
2019-04-21T18:35:58.613Z,8.88
2019-04-21T18:38:57.166Z,11.15
2019-04-21T18:41:13.253Z,13.95
2019-04-21T18:44:23.195Z,6.67
2019-04-21T18:46:49.103Z,11.35
2019-04-21T18:49:02.867Z,5.92
2019-04-21T18:51:59.627Z,7.58
2019-04-21T18:54:41.350Z,9.43
2019-04-21T18:57:08.187Z,8.38
2019-04-21T18:59:36.095Z,9.80
2019-04-21T19:02:06.328Z,13.83
2019-04-21T19:04:35.177Z,9.90
2019-04-21T19:07:18.105Z,14.05
2019-04-21T19:12:36.648Z,9.83
2019-04-21T19:14:55.050Z,6.72
2019-04-21T19:18:12.457Z,6.12
2019-04-21T19:20:10.616Z,12.45
2019-04-21T19:22:32.853Z,11.18
2019-04-21T19:25:05.440Z,10.55
2019-04-21T19:27:37.569Z,8.95
2019-04-21T19:30:12.026Z,7.85
2019-04-21T19:32:33.466Z,9.28
2019-04-21T19:34:57.166Z,9.97
2019-04-21T19:37:27.867Z,9.15
2019-04-21T19:40:09.641Z,6.53
2019-04-21T19:42:37.564Z,7.75
2019-04-21T19:45:16.535Z,9.30
2019-04-21T19:47:50.397Z,9.23
2019-04-21T19:50:25.994Z,13.28
2019-04-21T19:52:43.935Z,12.35
2019-04-21T19:55:09.792Z,9.65
2019-04-21T19:57:40.980Z,18.25
2019-04-21T20:00:12.062Z,15.03
2019-04-21T20:02:44.800Z,18.73
2019-04-21T20:08:05.435Z,17.17
2019-04-21T20:10:44.146Z,19.27
2019-04-21T20:13:07.192Z,18.70
2019-04-21T20:15:41.947Z,13.83
2019-04-21T20:18:04.748Z,12.98
2019-04-21T20:20:23.018Z,16.70
2019-04-21T20:22:54.250Z,17.00
2019-04-21T20:25:25.673Z,11.22
2019-04-21T20:28:05.508Z,12.00
2019-04-21T20:30:42.663Z,9.73
2019-04-21T20:36:15.059Z,9.05
2019-04-21T20:38:15.656Z,6.42
2019-04-21T20:40:45.361Z,7.67
2019-04-21T20:43:26.945Z,7.05
2019-04-21T20:46:00.620Z,9.35
2019-04-21T20:51:02.700Z,10.55
2019-04-21T20:53:26.206Z,9.05
2019-04-21T20:55:58.157Z,9.85
2019-04-21T20:58:33.879Z,8.33
2019-04-21T21:01:28.215Z,9.38
2019-04-21T21:03:40.773Z,8.88
2019-04-21T21:06:07.646Z,11.10
2019-04-21T21:08:40.260Z,8.65
2019-04-21T21:11:07.995Z,9.68
2019-04-21T21:13:42.835Z,7.00
2019-04-21T21:16:36.948Z,9.20
2019-04-21T21:19:03.754Z,9.18
2019-04-21T21:21:15.311Z,6.95
2019-04-21T21:23:48.040Z,9.05
2019-04-21T21:26:25.632Z,11.18
2019-04-21T21:28:45.962Z,5.70
2019-04-21T21:31:25.086Z,4.25
2019-04-21T21:36:26.622Z,6.78
2019-04-21T21:39:01.365Z,7.85
2019-04-21T21:41:23.471Z,9.70
2019-04-21T21:43:47.896Z,8.48
2019-04-21T21:46:37.181Z,6.08
2019-04-21T21:48:56.290Z,9.28
2019-04-21T21:51:33.156Z,4.28
2019-04-21T21:53:50.705Z,5.95
2019-04-21T21:56:20.624Z,5.62
2019-04-21T21:58:51.973Z,6.40
2019-04-21T22:01:35.678Z,5.62
2019-04-21T22:04:02.943Z,5.10
2019-04-21T22:06:34.207Z,6.55
2019-04-21T22:08:56.689Z,5.03
2019-04-21T22:11:26.368Z,7.20
2019-04-21T22:14:04.218Z,7.22
2019-04-21T22:16:43.198Z,10.03
2019-04-21T22:19:19.310Z,6.25
2019-04-21T22:21:53.815Z,11.22
2019-04-21T22:24:09.464Z,5.10
2019-04-21T22:26:36.971Z,7.62
2019-04-21T22:29:07.797Z,9.43
2019-04-21T22:31:40.822Z,9.83
2019-04-21T22:34:12.641Z,9.58
2019-04-21T22:36:48.462Z,8.23
2019-04-21T22:39:28.527Z,11.08
2019-04-21T22:41:48.468Z,8.33
2019-04-21T22:44:20.725Z,7.55
2019-04-21T22:47:02.932Z,6.22
2019-04-21T22:49:23.733Z,12.20
2019-04-21T22:51:55.705Z,5.15
2019-04-21T22:54:31.923Z,6.55
2019-04-21T22:57:04.547Z,8.23
2019-04-21T22:59:30.119Z,9.30
2019-04-21T23:02:06.355Z,7.62
2019-04-21T23:04:41.804Z,7.33
2019-04-21T23:07:10.165Z,7.22
2019-04-21T23:09:37.768Z,6.60
2019-04-21T23:12:08.046Z,10.93
2019-04-21T23:14:47.463Z,7.60
2019-04-21T23:17:29.280Z,5.12
2019-04-21T23:20:02.793Z,6.10
2019-04-21T23:22:32.026Z,3.90
2019-04-21T23:25:08.778Z,5.47
2019-04-21T23:27:34.350Z,8.10
2019-04-21T23:30:17.712Z,5.35
2019-04-21T23:32:33.847Z,10.08
2019-04-21T23:34:53.940Z,7.35
2019-04-21T23:37:25.643Z,10.72
2019-04-21T23:40:04.181Z,12.75
2019-04-21T23:42:31.907Z,9.83
2019-04-21T23:45:01.246Z,7.37
2019-04-21T23:47:45.591Z,8.65
2019-04-21T23:50:15.852Z,7.70
2019-04-21T23:52:32.788Z,10.95
2019-04-21T23:55:03.311Z,9.83
2019-04-21T23:57:39.681Z,7.10
